sensor_id;sensor_type;location;lat;lon;timestamp;P1;durP1;ratioP1;P2;durP2;ratioP2
11052;SDS011;55230;42.602;23.470;2022-09-09T00:00:21;8.57;;;7.70;;
11052;SDS011;55230;42.602;23.470;2022-09-09T00:02:50;8.10;;;7.40;;
11052;SDS011;55230;42.602;23.470;2022-09-09T00:05:29;8.87;;;7.97;;
11052;SDS011;55230;42.602;23.470;2022-09-09T00:08:00;9.30;;;8.47;;
11052;SDS011;55230;42.602;23.470;2022-09-09T00:10:31;9.43;;;8.53;;
11052;SDS011;55230;42.602;23.470;2022-09-09T00:13:04;10.87;;;8.43;;
11052;SDS011;55230;42.602;23.470;2022-09-09T00:15:43;9.70;;;8.80;;
11052;SDS011;55230;42.602;23.470;2022-09-09T00:18:17;8.50;;;7.63;;
11052;SDS011;55230;42.602;23.470;2022-09-09T00:20:52;8.63;;;7.83;;
11052;SDS011;55230;42.602;23.470;2022-09-09T00:23:25;7.93;;;7.10;;
11052;SDS011;55230;42.602;23.470;2022-09-09T00:25:58;7.73;;;7.03;;
11052;SDS011;55230;42.602;23.470;2022-09-09T00:28:33;7.83;;;7.13;;
11052;SDS011;55230;42.602;23.470;2022-09-09T00:31:08;8.97;;;8.17;;
11052;SDS011;55230;42.602;23.470;2022-09-09T00:33:39;9.07;;;7.50;;
11052;SDS011;55230;42.602;23.470;2022-09-09T00:36:09;8.70;;;7.80;;
11052;SDS011;55230;42.602;23.470;2022-09-09T00:38:42;8.47;;;7.77;;
11052;SDS011;55230;42.602;23.470;2022-09-09T00:41:11;8.80;;;8.00;;
11052;SDS011;55230;42.602;23.470;2022-09-09T00:43:49;9.30;;;7.87;;
11052;SDS011;55230;42.602;23.470;2022-09-09T00:46:38;10.17;;;8.50;;
11052;SDS011;55230;42.602;23.470;2022-09-09T00:49:15;9.23;;;8.07;;
11052;SDS011;55230;42.602;23.470;2022-09-09T00:51:52;8.70;;;7.90;;
11052;SDS011;55230;42.602;23.470;2022-09-09T00:54:33;10.00;;;7.80;;
11052;SDS011;55230;42.602;23.470;2022-09-09T01:00:14;7.77;;;7.07;;
11052;SDS011;55230;42.602;23.470;2022-09-09T01:02:45;8.33;;;7.53;;
11052;SDS011;55230;42.602;23.470;2022-09-09T01:05:22;7.63;;;6.93;;
11052;SDS011;55230;42.602;23.470;2022-09-09T01:07:56;7.83;;;7.03;;
11052;SDS011;55230;42.602;23.470;2022-09-09T01:10:29;8.43;;;7.00;;
11052;SDS011;55230;42.602;23.470;2022-09-09T01:13:02;7.63;;;6.70;;
11052;SDS011;55230;42.602;23.470;2022-09-09T01:15:37;7.00;;;6.27;;
11052;SDS011;55230;42.602;23.470;2022-09-09T01:18:08;7.73;;;7.00;;
11052;SDS011;55230;42.602;23.470;2022-09-09T01:20:39;7.20;;;6.50;;
11052;SDS011;55230;42.602;23.470;2022-09-09T01:23:19;7.83;;;6.40;;
11052;SDS011;55230;42.602;23.470;2022-09-09T01:26:15;7.20;;;6.50;;
11052;SDS011;55230;42.602;23.470;2022-09-09T01:28:46;9.73;;;6.70;;
11052;SDS011;55230;42.602;23.470;2022-09-09T01:31:17;7.90;;;6.57;;
11052;SDS011;55230;42.602;23.470;2022-09-09T01:33:46;8.07;;;6.53;;
11052;SDS011;55230;42.602;23.470;2022-09-09T01:36:14;9.50;;;7.30;;
11052;SDS011;55230;42.602;23.470;2022-09-09T01:38:51;8.03;;;7.23;;
11052;SDS011;55230;42.602;23.470;2022-09-09T01:41:20;7.50;;;6.80;;
11052;SDS011;55230;42.602;23.470;2022-09-09T01:43:47;8.27;;;6.87;;
11052;SDS011;55230;42.602;23.470;2022-09-09T01:46:14;7.10;;;6.50;;
11052;SDS011;55230;42.602;23.470;2022-09-09T01:48:42;7.23;;;6.53;;
11052;SDS011;55230;42.602;23.470;2022-09-09T01:51:09;9.77;;;7.10;;
11052;SDS011;55230;42.602;23.470;2022-09-09T01:53:36;7.70;;;6.93;;
11052;SDS011;55230;42.602;23.470;2022-09-09T01:56:08;8.83;;;6.57;;
11052;SDS011;55230;42.602;23.470;2022-09-09T01:58:50;9.77;;;7.73;;
11052;SDS011;55230;42.602;23.470;2022-09-09T02:01:28;9.07;;;8.13;;
11052;SDS011;55230;42.602;23.470;2022-09-09T02:04:08;9.17;;;8.30;;
11052;SDS011;55230;42.602;23.470;2022-09-09T02:06:44;9.17;;;8.27;;
11052;SDS011;55230;42.602;23.470;2022-09-09T02:09:14;10.20;;;8.97;;
11052;SDS011;55230;42.602;23.470;2022-09-09T02:11:45;10.37;;;9.33;;
11052;SDS011;55230;42.602;23.470;2022-09-09T02:14:17;9.97;;;8.97;;
11052;SDS011;55230;42.602;23.470;2022-09-09T02:16:50;10.80;;;9.73;;
11052;SDS011;55230;42.602;23.470;2022-09-09T02:19:21;10.57;;;9.50;;
11052;SDS011;55230;42.602;23.470;2022-09-09T02:21:52;12.27;;;9.73;;
11052;SDS011;55230;42.602;23.470;2022-09-09T02:24:22;10.30;;;9.30;;
11052;SDS011;55230;42.602;23.470;2022-09-09T02:26:52;10.33;;;8.87;;
11052;SDS011;55230;42.602;23.470;2022-09-09T02:29:24;10.53;;;9.53;;
11052;SDS011;55230;42.602;23.470;2022-09-09T02:31:54;11.57;;;10.47;;
11052;SDS011;55230;42.602;23.470;2022-09-09T02:34:24;11.03;;;9.90;;
11052;SDS011;55230;42.602;23.470;2022-09-09T02:36:53;10.10;;;8.60;;
11052;SDS011;55230;42.602;23.470;2022-09-09T02:39:23;8.83;;;7.93;;
11052;SDS011;55230;42.602;23.470;2022-09-09T02:41:50;10.00;;;9.07;;
11052;SDS011;55230;42.602;23.470;2022-09-09T02:44:17;10.17;;;8.90;;
11052;SDS011;55230;42.602;23.470;2022-09-09T02:46:51;11.53;;;8.80;;
11052;SDS011;55230;42.602;23.470;2022-09-09T02:49:35;8.10;;;7.30;;
11052;SDS011;55230;42.602;23.470;2022-09-09T02:52:12;10.27;;;8.17;;
11052;SDS011;55230;42.602;23.470;2022-09-09T02:54:41;8.73;;;7.40;;
11052;SDS011;55230;42.602;23.470;2022-09-09T02:57:10;8.63;;;7.73;;
11052;SDS011;55230;42.602;23.470;2022-09-09T02:59:41;8.13;;;7.33;;
11052;SDS011;55230;42.602;23.470;2022-09-09T03:02:11;9.33;;;7.70;;
11052;SDS011;55230;42.602;23.470;2022-09-09T03:04:38;9.57;;;8.57;;
11052;SDS011;55230;42.602;23.470;2022-09-09T03:07:06;9.37;;;8.43;;
11052;SDS011;55230;42.602;23.470;2022-09-09T03:09:35;9.20;;;8.30;;
11052;SDS011;55230;42.602;23.470;2022-09-09T03:12:02;9.50;;;8.60;;
11052;SDS011;55230;42.602;23.470;2022-09-09T03:14:29;9.93;;;8.90;;
11052;SDS011;55230;42.602;23.470;2022-09-09T03:16:56;10.97;;;9.87;;
11052;SDS011;55230;42.602;23.470;2022-09-09T03:19:27;10.47;;;9.50;;
11052;SDS011;55230;42.602;23.470;2022-09-09T03:21:55;14.73;;;13.20;;
11052;SDS011;55230;42.602;23.470;2022-09-09T03:24:21;10.50;;;9.43;;
11052;SDS011;55230;42.602;23.470;2022-09-09T03:26:48;14.13;;;12.73;;
11052;SDS011;55230;42.602;23.470;2022-09-09T03:29:15;12.63;;;9.97;;
11052;SDS011;55230;42.602;23.470;2022-09-09T03:31:43;11.57;;;10.33;;
11052;SDS011;55230;42.602;23.470;2022-09-09T03:34:11;11.57;;;10.33;;
11052;SDS011;55230;42.602;23.470;2022-09-09T03:36:40;11.93;;;10.73;;
11052;SDS011;55230;42.602;23.470;2022-09-09T03:39:07;11.63;;;10.43;;
11052;SDS011;55230;42.602;23.470;2022-09-09T03:41:34;11.63;;;10.57;;
11052;SDS011;55230;42.602;23.470;2022-09-09T03:44:02;12.00;;;10.70;;
11052;SDS011;55230;42.602;23.470;2022-09-09T03:46:29;12.03;;;10.83;;
11052;SDS011;55230;42.602;23.470;2022-09-09T03:48:56;11.00;;;10.00;;
11052;SDS011;55230;42.602;23.470;2022-09-09T03:51:23;11.43;;;10.40;;
11052;SDS011;55230;42.602;23.470;2022-09-09T03:53:51;12.33;;;10.90;;
11052;SDS011;55230;42.602;23.470;2022-09-09T03:56:23;10.87;;;9.73;;
11052;SDS011;55230;42.602;23.470;2022-09-09T03:58:49;12.80;;;11.33;;
11052;SDS011;55230;42.602;23.470;2022-09-09T04:01:16;11.50;;;10.30;;
11052;SDS011;55230;42.602;23.470;2022-09-09T04:03:43;9.97;;;8.97;;
11052;SDS011;55230;42.602;23.470;2022-09-09T04:06:11;11.57;;;10.43;;
11052;SDS011;55230;42.602;23.470;2022-09-09T04:08:40;9.37;;;8.40;;
11052;SDS011;55230;42.602;23.470;2022-09-09T04:11:08;10.20;;;8.70;;
11052;SDS011;55230;42.602;23.470;2022-09-09T04:13:35;9.43;;;8.30;;
11052;SDS011;55230;42.602;23.470;2022-09-09T04:16:04;12.70;;;10.23;;
11052;SDS011;55230;42.602;23.470;2022-09-09T04:18:31;11.10;;;10.00;;
11052;SDS011;55230;42.602;23.470;2022-09-09T04:20:59;11.00;;;10.00;;
11052;SDS011;55230;42.602;23.470;2022-09-09T04:23:26;11.00;;;10.00;;
11052;SDS011;55230;42.602;23.470;2022-09-09T04:25:55;10.80;;;9.70;;
11052;SDS011;55230;42.602;23.470;2022-09-09T04:28:25;14.27;;;11.10;;
11052;SDS011;55230;42.602;23.470;2022-09-09T04:30:53;13.30;;;11.57;;
11052;SDS011;55230;42.602;23.470;2022-09-09T04:33:20;12.33;;;11.00;;
11052;SDS011;55230;42.602;23.470;2022-09-09T04:35:47;11.30;;;10.17;;
11052;SDS011;55230;42.602;23.470;2022-09-09T04:38:15;13.90;;;10.70;;
11052;SDS011;55230;42.602;23.470;2022-09-09T04:40:42;11.57;;;10.57;;
11052;SDS011;55230;42.602;23.470;2022-09-09T04:43:09;14.53;;;10.60;;
11052;SDS011;55230;42.602;23.470;2022-09-09T04:45:37;11.13;;;10.03;;
11052;SDS011;55230;42.602;23.470;2022-09-09T04:48:05;12.33;;;10.50;;
11052;SDS011;55230;42.602;23.470;2022-09-09T04:50:32;10.73;;;9.53;;
11052;SDS011;55230;42.602;23.470;2022-09-09T04:52:59;12.20;;;9.67;;
11052;SDS011;55230;42.602;23.470;2022-09-09T04:55:27;11.50;;;10.30;;
11052;SDS011;55230;42.602;23.470;2022-09-09T04:57:55;13.03;;;10.80;;
11052;SDS011;55230;42.602;23.470;2022-09-09T05:00:22;14.07;;;11.23;;
11052;SDS011;55230;42.602;23.470;2022-09-09T05:02:50;12.07;;;10.87;;
11052;SDS011;55230;42.602;23.470;2022-09-09T05:05:17;11.60;;;10.40;;
11052;SDS011;55230;42.602;23.470;2022-09-09T05:07:44;13.03;;;11.63;;
11052;SDS011;55230;42.602;23.470;2022-09-09T05:10:12;11.80;;;10.70;;
11052;SDS011;55230;42.602;23.470;2022-09-09T05:12:41;10.87;;;9.57;;
11052;SDS011;55230;42.602;23.470;2022-09-09T05:15:08;9.83;;;6.77;;
11052;SDS011;55230;42.602;23.470;2022-09-09T05:17:36;9.57;;;8.60;;
11052;SDS011;55230;42.602;23.470;2022-09-09T05:20:05;9.13;;;7.77;;
11052;SDS011;55230;42.602;23.470;2022-09-09T05:22:32;9.10;;;7.10;;
11052;SDS011;55230;42.602;23.470;2022-09-09T05:24:59;9.83;;;8.83;;
11052;SDS011;55230;42.602;23.470;2022-09-09T05:27:26;8.30;;;7.43;;
11052;SDS011;55230;42.602;23.470;2022-09-09T05:29:52;9.60;;;7.60;;
11052;SDS011;55230;42.602;23.470;2022-09-09T05:32:19;8.23;;;7.03;;
11052;SDS011;55230;42.602;23.470;2022-09-09T05:34:46;7.13;;;5.47;;
11052;SDS011;55230;42.602;23.470;2022-09-09T05:37:14;6.77;;;5.37;;
11052;SDS011;55230;42.602;23.470;2022-09-09T05:39:41;5.50;;;5.00;;
11052;SDS011;55230;42.602;23.470;2022-09-09T05:42:08;7.50;;;5.90;;
11052;SDS011;55230;42.602;23.470;2022-09-09T05:44:35;9.70;;;8.70;;
11052;SDS011;55230;42.602;23.470;2022-09-09T05:47:02;12.30;;;9.80;;
11052;SDS011;55230;42.602;23.470;2022-09-09T05:49:29;11.53;;;10.23;;
11052;SDS011;55230;42.602;23.470;2022-09-09T05:51:55;12.70;;;9.67;;
11052;SDS011;55230;42.602;23.470;2022-09-09T05:54:24;12.83;;;10.47;;
11052;SDS011;55230;42.602;23.470;2022-09-09T05:56:50;11.27;;;9.30;;
11052;SDS011;55230;42.602;23.470;2022-09-09T05:59:18;12.77;;;9.23;;
11052;SDS011;55230;42.602;23.470;2022-09-09T06:01:45;12.13;;;10.20;;
11052;SDS011;55230;42.602;23.470;2022-09-09T06:04:12;10.70;;;9.60;;
11052;SDS011;55230;42.602;23.470;2022-09-09T06:06:39;13.13;;;10.07;;
11052;SDS011;55230;42.602;23.470;2022-09-09T06:09:07;13.17;;;10.50;;
11052;SDS011;55230;42.602;23.470;2022-09-09T06:11:38;12.90;;;9.23;;
11052;SDS011;55230;42.602;23.470;2022-09-09T06:14:05;10.93;;;9.27;;
11052;SDS011;55230;42.602;23.470;2022-09-09T06:16:33;11.33;;;10.20;;
11052;SDS011;55230;42.602;23.470;2022-09-09T06:19:00;10.30;;;8.80;;
11052;SDS011;55230;42.602;23.470;2022-09-09T06:21:28;11.57;;;9.57;;
11052;SDS011;55230;42.602;23.470;2022-09-09T06:23:57;10.90;;;9.20;;
11052;SDS011;55230;42.602;23.470;2022-09-09T06:26:25;10.87;;;9.50;;
11052;SDS011;55230;42.602;23.470;2022-09-09T06:28:54;11.57;;;9.37;;
11052;SDS011;55230;42.602;23.470;2022-09-09T06:31:23;12.67;;;9.07;;
11052;SDS011;55230;42.602;23.470;2022-09-09T06:33:52;11.10;;;9.40;;
11052;SDS011;55230;42.602;23.470;2022-09-09T06:36:20;14.17;;;10.63;;
11052;SDS011;55230;42.602;23.470;2022-09-09T06:38:49;11.83;;;8.23;;
11052;SDS011;55230;42.602;23.470;2022-09-09T06:41:17;12.13;;;9.90;;
11052;SDS011;55230;42.602;23.470;2022-09-09T06:43:44;10.40;;;8.50;;
11052;SDS011;55230;42.602;23.470;2022-09-09T06:46:14;11.37;;;8.50;;
11052;SDS011;55230;42.602;23.470;2022-09-09T06:48:42;13.53;;;8.30;;
11052;SDS011;55230;42.602;23.470;2022-09-09T06:51:11;13.70;;;8.40;;
11052;SDS011;55230;42.602;23.470;2022-09-09T06:53:39;10.77;;;8.23;;
11052;SDS011;55230;42.602;23.470;2022-09-09T06:56:17;8.27;;;7.43;;
11052;SDS011;55230;42.602;23.470;2022-09-09T06:58:46;10.17;;;7.70;;
11052;SDS011;55230;42.602;23.470;2022-09-09T07:01:15;10.90;;;8.07;;
11052;SDS011;55230;42.602;23.470;2022-09-09T07:03:45;11.33;;;9.23;;
11052;SDS011;55230;42.602;23.470;2022-09-09T07:06:15;13.77;;;8.00;;
11052;SDS011;55230;42.602;23.470;2022-09-09T07:08:43;10.00;;;7.43;;
11052;SDS011;55230;42.602;23.470;2022-09-09T07:11:10;8.67;;;7.80;;
11052;SDS011;55230;42.602;23.470;2022-09-09T07:13:37;9.00;;;7.90;;
11052;SDS011;55230;42.602;23.470;2022-09-09T07:16:04;11.20;;;7.63;;
11052;SDS011;55230;42.602;23.470;2022-09-09T07:18:33;11.77;;;7.73;;
11052;SDS011;55230;42.602;23.470;2022-09-09T07:21:01;10.77;;;6.90;;
11052;SDS011;55230;42.602;23.470;2022-09-09T07:23:29;9.00;;;7.03;;
11052;SDS011;55230;42.602;23.470;2022-09-09T07:25:56;7.55;;;6.85;;
11052;SDS011;55230;42.602;23.470;2022-09-09T07:28:23;10.10;;;6.63;;
11052;SDS011;55230;42.602;23.470;2022-09-09T07:30:54;14.83;;;7.50;;
11052;SDS011;55230;42.602;23.470;2022-09-09T07:33:22;7.80;;;6.97;;
11052;SDS011;55230;42.602;23.470;2022-09-09T07:35:50;9.50;;;6.63;;
11052;SDS011;55230;42.602;23.470;2022-09-09T07:38:18;8.65;;;7.03;;
11052;SDS011;55230;42.602;23.470;2022-09-09T07:40:45;7.70;;;6.90;;
11052;SDS011;55230;42.602;23.470;2022-09-09T07:43:12;7.43;;;6.72;;
11052;SDS011;55230;42.602;23.470;2022-09-09T07:45:39;7.50;;;6.80;;
11052;SDS011;55230;42.602;23.470;2022-09-09T07:48:08;8.70;;;6.82;;
11052;SDS011;55230;42.602;23.470;2022-09-09T07:50:35;7.60;;;6.82;;
11052;SDS011;55230;42.602;23.470;2022-09-09T07:53:04;8.55;;;7.13;;
11052;SDS011;55230;42.602;23.470;2022-09-09T07:55:31;7.85;;;6.45;;
11052;SDS011;55230;42.602;23.470;2022-09-09T07:57:58;10.02;;;6.45;;
11052;SDS011;55230;42.602;23.470;2022-09-09T08:00:25;7.35;;;6.75;;
11052;SDS011;55230;42.602;23.470;2022-09-09T08:02:52;6.90;;;6.30;;
11052;SDS011;55230;42.602;23.470;2022-09-09T08:05:19;7.50;;;6.65;;
11052;SDS011;55230;42.602;23.470;2022-09-09T08:07:47;6.97;;;6.30;;
11052;SDS011;55230;42.602;23.470;2022-09-09T08:10:15;8.80;;;6.47;;
11052;SDS011;55230;42.602;23.470;2022-09-09T08:12:43;11.30;;;6.30;;
11052;SDS011;55230;42.602;23.470;2022-09-09T08:15:10;6.90;;;6.18;;
11052;SDS011;55230;42.602;23.470;2022-09-09T08:17:37;7.32;;;6.43;;
11052;SDS011;55230;42.602;23.470;2022-09-09T08:20:04;8.77;;;6.40;;
11052;SDS011;55230;42.602;23.470;2022-09-09T08:22:31;8.30;;;6.40;;
11052;SDS011;55230;42.602;23.470;2022-09-09T08:24:59;9.30;;;6.38;;
11052;SDS011;55230;42.602;23.470;2022-09-09T08:27:28;6.88;;;6.25;;
11052;SDS011;55230;42.602;23.470;2022-09-09T08:29:57;8.90;;;6.55;;
11052;SDS011;55230;42.602;23.470;2022-09-09T08:32:24;7.28;;;6.25;;
11052;SDS011;55230;42.602;23.470;2022-09-09T08:34:51;7.28;;;6.47;;
11052;SDS011;55230;42.602;23.470;2022-09-09T08:37:17;7.35;;;6.20;;
11052;SDS011;55230;42.602;23.470;2022-09-09T08:39:45;10.82;;;6.28;;
11052;SDS011;55230;42.602;23.470;2022-09-09T08:45:12;6.90;;;6.20;;
11052;SDS011;55230;42.602;23.470;2022-09-09T08:47:50;7.88;;;6.55;;
11052;SDS011;55230;42.602;23.470;2022-09-09T08:50:25;7.22;;;6.10;;
11052;SDS011;55230;42.602;23.470;2022-09-09T08:52:55;8.07;;;6.28;;
11052;SDS011;55230;42.602;23.470;2022-09-09T08:55:29;7.72;;;5.78;;
11052;SDS011;55230;42.602;23.470;2022-09-09T08:58:08;10.75;;;6.40;;
11052;SDS011;55230;42.602;23.470;2022-09-09T09:00:40;6.72;;;6.13;;
11052;SDS011;55230;42.602;23.470;2022-09-09T09:03:19;7.53;;;6.50;;
11052;SDS011;55230;42.602;23.470;2022-09-09T09:05:56;6.55;;;5.90;;
11052;SDS011;55230;42.602;23.470;2022-09-09T09:08:29;7.55;;;6.25;;
11052;SDS011;55230;42.602;23.470;2022-09-09T09:11:03;9.43;;;6.72;;
11052;SDS011;55230;42.602;23.470;2022-09-09T09:13:33;7.28;;;6.47;;
11052;SDS011;55230;42.602;23.470;2022-09-09T09:16:07;7.43;;;6.60;;
11052;SDS011;55230;42.602;23.470;2022-09-09T09:18:43;6.78;;;6.13;;
11052;SDS011;55230;42.602;23.470;2022-09-09T09:21:11;7.32;;;6.43;;
11052;SDS011;55230;42.602;23.470;2022-09-09T09:23:45;8.80;;;6.63;;
11052;SDS011;55230;42.602;23.470;2022-09-09T09:26:17;9.43;;;6.47;;
11052;SDS011;55230;42.602;23.470;2022-09-09T09:28:46;9.20;;;6.35;;
11052;SDS011;55230;42.602;23.470;2022-09-09T09:31:13;7.50;;;6.53;;
11052;SDS011;55230;42.602;23.470;2022-09-09T09:33:43;7.43;;;6.72;;
11052;SDS011;55230;42.602;23.470;2022-09-09T09:36:13;8.32;;;6.32;;
11052;SDS011;55230;42.602;23.470;2022-09-09T09:38:51;9.23;;;6.47;;
11052;SDS011;55230;42.602;23.470;2022-09-09T09:41:28;8.77;;;6.68;;
11052;SDS011;55230;42.602;23.470;2022-09-09T09:43:57;9.60;;;6.43;;
11052;SDS011;55230;42.602;23.470;2022-09-09T09:46:25;8.43;;;7.13;;
11052;SDS011;55230;42.602;23.470;2022-09-09T09:48:59;9.32;;;6.50;;
11052;SDS011;55230;42.602;23.470;2022-09-09T09:51:26;7.18;;;6.43;;
11052;SDS011;55230;42.602;23.470;2022-09-09T09:54:02;8.02;;;6.47;;
11052;SDS011;55230;42.602;23.470;2022-09-09T09:56:34;7.57;;;6.65;;
11052;SDS011;55230;42.602;23.470;2022-09-09T09:59:02;7.32;;;6.72;;
11052;SDS011;55230;42.602;23.470;2022-09-09T10:01:29;7.22;;;6.53;;
11052;SDS011;55230;42.602;23.470;2022-09-09T10:03:58;7.18;;;6.50;;
11052;SDS011;55230;42.602;23.470;2022-09-09T10:06:30;9.90;;;6.05;;
11052;SDS011;55230;42.602;23.470;2022-09-09T10:08:58;9.15;;;6.45;;
11052;SDS011;55230;42.602;23.470;2022-09-09T10:11:29;6.38;;;5.78;;
11052;SDS011;55230;42.602;23.470;2022-09-09T10:14:08;9.10;;;6.82;;
11052;SDS011;55230;42.602;23.470;2022-09-09T10:16:47;8.48;;;6.75;;
11052;SDS011;55230;42.602;23.470;2022-09-09T10:19:27;7.10;;;6.45;;
11052;SDS011;55230;42.602;23.470;2022-09-09T10:27:46;11.55;;;6.70;;
11052;SDS011;55230;42.602;23.470;2022-09-09T10:30:24;8.38;;;7.00;;
11052;SDS011;55230;42.602;23.470;2022-09-09T10:33:03;6.75;;;6.15;;
11052;SDS011;55230;42.602;23.470;2022-09-09T10:35:35;7.78;;;6.57;;
11052;SDS011;55230;42.602;23.470;2022-09-09T10:38:13;9.00;;;6.53;;
11052;SDS011;55230;42.602;23.470;2022-09-09T10:40:44;10.95;;;6.32;;
11052;SDS011;55230;42.602;23.470;2022-09-09T10:43:29;10.43;;;6.43;;
11052;SDS011;55230;42.602;23.470;2022-09-09T10:46:26;8.82;;;6.78;;
11052;SDS011;55230;42.602;23.470;2022-09-09T10:49:04;10.45;;;6.93;;
11052;SDS011;55230;42.602;23.470;2022-09-09T10:51:45;7.97;;;6.93;;
11052;SDS011;55230;42.602;23.470;2022-09-09T10:54:26;9.63;;;6.88;;
11052;SDS011;55230;42.602;23.470;2022-09-09T10:57:03;15.07;;;7.00;;
11052;SDS011;55230;42.602;23.470;2022-09-09T10:59:35;9.57;;;7.43;;
11052;SDS011;55230;42.602;23.470;2022-09-09T11:02:12;11.05;;;6.88;;
11052;SDS011;55230;42.602;23.470;2022-09-09T11:04:45;11.30;;;7.25;;
11052;SDS011;55230;42.602;23.470;2022-09-09T11:07:21;11.82;;;7.80;;
11052;SDS011;55230;42.602;23.470;2022-09-09T11:09:54;10.02;;;7.22;;
11052;SDS011;55230;42.602;23.470;2022-09-09T11:12:27;8.45;;;7.53;;
11052;SDS011;55230;42.602;23.470;2022-09-09T11:14:57;9.77;;;7.00;;
11052;SDS011;55230;42.602;23.470;2022-09-09T11:17:33;13.15;;;7.72;;
11052;SDS011;55230;42.602;23.470;2022-09-09T11:20:06;8.77;;;6.78;;
11052;SDS011;55230;42.602;23.470;2022-09-09T11:22:39;9.10;;;7.38;;
11052;SDS011;55230;42.602;23.470;2022-09-09T11:25:14;12.15;;;7.50;;
11052;SDS011;55230;42.602;23.470;2022-09-09T11:27:45;12.13;;;6.82;;
11052;SDS011;55230;42.602;23.470;2022-09-09T11:30:21;10.57;;;7.00;;
11052;SDS011;55230;42.602;23.470;2022-09-09T11:35:49;10.35;;;7.43;;
11052;SDS011;55230;42.602;23.470;2022-09-09T11:38:29;8.38;;;6.38;;
11052;SDS011;55230;42.602;23.470;2022-09-09T11:41:04;9.35;;;6.95;;
11052;SDS011;55230;42.602;23.470;2022-09-09T11:43:38;9.43;;;7.38;;
11052;SDS011;55230;42.602;23.470;2022-09-09T11:46:07;8.50;;;6.95;;
11052;SDS011;55230;42.602;23.470;2022-09-09T11:48:37;9.85;;;6.57;;
11052;SDS011;55230;42.602;23.470;2022-09-09T11:51:09;7.35;;;6.63;;
11052;SDS011;55230;42.602;23.470;2022-09-09T11:53:47;10.52;;;6.65;;
11052;SDS011;55230;42.602;23.470;2022-09-09T11:56:23;8.30;;;6.93;;
11052;SDS011;55230;42.602;23.470;2022-09-09T12:01:48;11.50;;;6.95;;
11052;SDS011;55230;42.602;23.470;2022-09-09T12:04:33;11.18;;;7.40;;
11052;SDS011;55230;42.602;23.470;2022-09-09T12:07:05;10.50;;;6.75;;
11052;SDS011;55230;42.602;23.470;2022-09-09T12:09:54;9.10;;;6.65;;
11052;SDS011;55230;42.602;23.470;2022-09-09T12:12:28;8.32;;;6.53;;
11052;SDS011;55230;42.602;23.470;2022-09-09T12:17:46;11.93;;;6.82;;
11052;SDS011;55230;42.602;23.470;2022-09-09T12:20:17;10.52;;;6.50;;
11052;SDS011;55230;42.602;23.470;2022-09-09T12:22:51;9.07;;;7.13;;
11052;SDS011;55230;42.602;23.470;2022-09-09T12:25:31;8.15;;;6.88;;
11052;SDS011;55230;42.602;23.470;2022-09-09T12:28:09;9.85;;;6.88;;
11052;SDS011;55230;42.602;23.470;2022-09-09T12:30:43;10.68;;;6.45;;
11052;SDS011;55230;42.602;23.470;2022-09-09T12:33:16;9.73;;;6.95;;
11052;SDS011;55230;42.602;23.470;2022-09-09T12:35:47;10.20;;;6.88;;
11052;SDS011;55230;42.602;23.470;2022-09-09T12:38:21;9.32;;;6.90;;
11052;SDS011;55230;42.602;23.470;2022-09-09T12:40:57;9.05;;;6.50;;
11052;SDS011;55230;42.602;23.470;2022-09-09T12:43:26;11.48;;;7.20;;
11052;SDS011;55230;42.602;23.470;2022-09-09T12:45:54;12.30;;;6.38;;
11052;SDS011;55230;42.602;23.470;2022-09-09T12:48:25;10.10;;;7.00;;
11052;SDS011;55230;42.602;23.470;2022-09-09T12:50:58;9.75;;;6.70;;
11052;SDS011;55230;42.602;23.470;2022-09-09T12:53:26;9.85;;;6.60;;
11052;SDS011;55230;42.602;23.470;2022-09-09T12:55:56;9.38;;;7.00;;
11052;SDS011;55230;42.602;23.470;2022-09-09T12:58:24;10.48;;;7.53;;
11052;SDS011;55230;42.602;23.470;2022-09-09T13:00:54;9.32;;;6.75;;
11052;SDS011;55230;42.602;23.470;2022-09-09T13:03:22;10.70;;;7.25;;
11052;SDS011;55230;42.602;23.470;2022-09-09T13:05:50;11.05;;;7.00;;
11052;SDS011;55230;42.602;23.470;2022-09-09T13:08:19;10.05;;;7.10;;
11052;SDS011;55230;42.602;23.470;2022-09-09T13:10:47;11.57;;;7.32;;
11052;SDS011;55230;42.602;23.470;2022-09-09T13:13:20;11.35;;;7.25;;
11052;SDS011;55230;42.602;23.470;2022-09-09T13:15:49;10.43;;;7.47;;
11052;SDS011;55230;42.602;23.470;2022-09-09T13:18:20;11.45;;;7.32;;
11052;SDS011;55230;42.602;23.470;2022-09-09T13:20:49;8.68;;;7.65;;
11052;SDS011;55230;42.602;23.470;2022-09-09T13:23:16;14.13;;;7.10;;
11052;SDS011;55230;42.602;23.470;2022-09-09T13:25:54;12.45;;;7.35;;
11052;SDS011;55230;42.602;23.470;2022-09-09T13:28:23;8.95;;;6.75;;
11052;SDS011;55230;42.602;23.470;2022-09-09T13:30:55;8.52;;;7.00;;
11052;SDS011;55230;42.602;23.470;2022-09-09T13:33:28;10.70;;;7.32;;
11052;SDS011;55230;42.602;23.470;2022-09-09T13:35:58;9.70;;;7.07;;
11052;SDS011;55230;42.602;23.470;2022-09-09T13:38:28;7.90;;;7.00;;
11052;SDS011;55230;42.602;23.470;2022-09-09T13:40:59;11.85;;;7.32;;
11052;SDS011;55230;42.602;23.470;2022-09-09T13:43:29;8.82;;;7.00;;
11052;SDS011;55230;42.602;23.470;2022-09-09T13:45:58;8.00;;;6.30;;
11052;SDS011;55230;42.602;23.470;2022-09-09T13:48:26;8.50;;;6.75;;
11052;SDS011;55230;42.602;23.470;2022-09-09T13:50:59;12.10;;;7.28;;
11052;SDS011;55230;42.602;23.470;2022-09-09T13:53:28;8.68;;;6.75;;
11052;SDS011;55230;42.602;23.470;2022-09-09T13:55:55;8.20;;;7.28;;
11052;SDS011;55230;42.602;23.470;2022-09-09T13:58:24;11.98;;;7.45;;
11052;SDS011;55230;42.602;23.470;2022-09-09T14:00:51;8.10;;;6.93;;
11052;SDS011;55230;42.602;23.470;2022-09-09T14:03:19;7.32;;;6.60;;
11052;SDS011;55230;42.602;23.470;2022-09-09T14:05:46;7.18;;;6.57;;
11052;SDS011;55230;42.602;23.470;2022-09-09T14:08:21;7.72;;;6.22;;
11052;SDS011;55230;42.602;23.470;2022-09-09T14:10:51;8.77;;;6.57;;
11052;SDS011;55230;42.602;23.470;2022-09-09T14:13:20;8.00;;;6.55;;
11052;SDS011;55230;42.602;23.470;2022-09-09T14:15:49;8.77;;;6.85;;
11052;SDS011;55230;42.602;23.470;2022-09-09T14:18:16;10.60;;;6.28;;
11052;SDS011;55230;42.602;23.470;2022-09-09T14:20:44;8.27;;;6.43;;
11052;SDS011;55230;42.602;23.470;2022-09-09T14:23:11;9.55;;;6.72;;
11052;SDS011;55230;42.602;23.470;2022-09-09T14:25:39;8.65;;;6.35;;
11052;SDS011;55230;42.602;23.470;2022-09-09T14:28:08;9.98;;;6.45;;
11052;SDS011;55230;42.602;23.470;2022-09-09T14:30:37;8.98;;;6.60;;
11052;SDS011;55230;42.602;23.470;2022-09-09T14:33:06;9.45;;;6.13;;
11052;SDS011;55230;42.602;23.470;2022-09-09T14:35:33;10.40;;;6.50;;
11052;SDS011;55230;42.602;23.470;2022-09-09T14:38:01;8.38;;;5.95;;
11052;SDS011;55230;42.602;23.470;2022-09-09T14:40:28;7.85;;;5.85;;
11052;SDS011;55230;42.602;23.470;2022-09-09T14:42:55;7.30;;;6.18;;
11052;SDS011;55230;42.602;23.470;2022-09-09T14:45:23;9.40;;;6.00;;
11052;SDS011;55230;42.602;23.470;2022-09-09T14:47:51;9.27;;;5.95;;
11052;SDS011;55230;42.602;23.470;2022-09-09T14:50:20;9.98;;;6.28;;
11052;SDS011;55230;42.602;23.470;2022-09-09T14:52:48;7.40;;;5.38;;
11052;SDS011;55230;42.602;23.470;2022-09-09T14:55:15;7.28;;;5.38;;
11052;SDS011;55230;42.602;23.470;2022-09-09T14:57:43;8.38;;;5.10;;
11052;SDS011;55230;42.602;23.470;2022-09-09T15:00:10;9.32;;;5.97;;
11052;SDS011;55230;42.602;23.470;2022-09-09T15:02:38;8.77;;;5.90;;
11052;SDS011;55230;42.602;23.470;2022-09-09T15:05:05;8.30;;;6.20;;
11052;SDS011;55230;42.602;23.470;2022-09-09T15:07:34;12.10;;;7.85;;